Wichita, KS (67203)

11:36 AM CDT on March 30, 2015 (GMT -0500)
25th PERRY Wichita | | Change Station
CLOSE
Current Station
Personal Weather Station
Location: WICHITA, KS
Elevation: 1298 ft
Nearby Weather Stations

Elev 1298 ft 37.73 °N, 97.36 °W | Updated 5 seconds ago

Clear
Clear
68.0 °F
Feels Like 68.0 °F
N
3.0
Wind Variable Wind from North
Gusts 5.0 mph

Today
High -- | Low -- °F
--% Chance of Precip.
Yesterday
High -- | Low -- °F
Precip. -- in
7:18 AM 7:50 PM
Waxing Gibbous, 80% visible
Pressure 30.18 in
Visibility 10.0 miles
Clouds Few 20000 ft
Dew Point 35 °F
Humidity 30%
Rainfall 0.00 in
Snow Depth Not available.
UV 5 out of 12
Pollen 9.40 out of 12
Air Quality Not available.
Flu Activity Not available.
METAR KICT 301553Z 16010KT 10SM FEW200 17/M01 A3019 RMK AO2 SLP219 T01721006

More Conditions Fewer Conditions

Pressure 30.18 in
Visibility 10.0 miles
Clouds Few 20000 ft
Dew Point 35 °F
Humidity 30%
Rainfall 0.00 in
Snow Depth Not available.
UV 5 out of 12
Pollen 9.40 out of 12
Air Quality Not available.
Flu Activity Not available.
METAR KICT 301553Z 16010KT 10SM FEW200 17/M01 A3019 RMK AO2 SLP219 T01721006

More Conditions Fewer Conditions

10-Day Weather Forecast

Almanac

Astronomy

Mar. 30, 2015 Rise Set
Actual Time
Civil Twilight
Nautical Twilight
Astronomical Twilight
Moon
Length of Visible Light
Length of Day
Tomorrow will be .
, % of the Moon is Illuminated

Today's Extremes

State Highs State Lows

Community

WunderPhotos

Upload Photos

1,809,533 photos uploaded!

WunderBlogs® & News

Nearby

Air Quality

  Air Quality AQ Index Pollutant
Not available.

Snow Depth

Station Depth Elevation

Earthquake Activity

City Distance Mag. Time & Date
Minimum magnitude displayed is 2.5.

Coastal Water Temperatures

Place Temperature

Stations

Nearby Weather Stations

Station Location Temp. Windchill Dew Point Humidity Wind Precip. Elev Updated Type